createdAt,value
2022-12-09T00:01:23.192Z,3.10
2022-12-09T00:03:50.928Z,3.05
2022-12-09T00:06:29.537Z,3.06
2022-12-09T00:08:58.067Z,3.07
2022-12-09T00:11:28.410Z,3.09
2022-12-09T00:13:57.375Z,3.04
2022-12-09T00:16:26.025Z,3.06
2022-12-09T00:18:57.603Z,3.09
2022-12-09T00:21:30.133Z,3.10
2022-12-09T00:23:59.312Z,3.16
2022-12-09T00:26:27.705Z,3.17
2022-12-09T00:28:56.146Z,3.13
2022-12-09T00:31:26.028Z,3.10
2022-12-09T00:33:56.478Z,3.10
2022-12-09T00:36:24.742Z,3.15
2022-12-09T00:38:54.018Z,3.16
2022-12-09T00:41:21.540Z,3.14
2022-12-09T00:43:51.500Z,3.14
2022-12-09T00:46:19.115Z,3.08
2022-12-09T00:48:47.143Z,3.08
2022-12-09T00:51:23.684Z,3.08
2022-12-09T00:53:54.879Z,3.19
2022-12-09T00:56:26.432Z,3.17
2022-12-09T00:58:54.512Z,3.14
2022-12-09T01:01:24.501Z,3.14
2022-12-09T01:03:52.099Z,3.13
2022-12-09T01:06:22.649Z,3.15
2022-12-09T01:08:50.241Z,3.13
2022-12-09T01:11:26.666Z,3.13
2022-12-09T01:13:57.925Z,3.14
2022-12-09T01:16:27.535Z,3.14
2022-12-09T01:18:57.543Z,3.15
2022-12-09T01:21:25.030Z,3.15
2022-12-09T01:23:53.035Z,3.14
2022-12-09T01:26:21.625Z,3.17
2022-12-09T01:28:53.497Z,3.18
2022-12-09T01:31:24.344Z,3.22
2022-12-09T01:33:52.600Z,3.17
2022-12-09T01:36:23.279Z,3.17
2022-12-09T01:38:51.160Z,3.12
2022-12-09T01:41:20.679Z,3.17
2022-12-09T01:44:26.084Z,3.13
2022-12-09T01:46:56.733Z,3.11
2022-12-09T01:49:28.861Z,3.06
2022-12-09T01:52:11.083Z,3.09
2022-12-09T01:54:41.866Z,3.15
2022-12-09T01:57:09.178Z,3.17
2022-12-09T01:59:37.247Z,3.11
2022-12-09T02:02:08.131Z,3.10
2022-12-09T02:04:41.418Z,3.08
2022-12-09T02:07:10.725Z,3.10
2022-12-09T02:09:40.146Z,3.13
2022-12-09T02:12:12.072Z,3.12
2022-12-09T02:14:55.613Z,3.11
2022-12-09T02:17:27.960Z,3.15
2022-12-09T02:20:39.136Z,3.07
2022-12-09T02:23:35.190Z,3.07
2022-12-09T02:26:30.579Z,3.10
2022-12-09T02:29:24.130Z,3.09
2022-12-09T02:32:01.439Z,3.01
2022-12-09T02:34:34.955Z,3.01
2022-12-09T02:37:16.373Z,2.96
2022-12-09T02:40:21.401Z,2.96
2022-12-09T02:42:51.919Z,2.97
2022-12-09T02:45:22.106Z,2.95
2022-12-09T02:47:54.940Z,2.97
2022-12-09T02:50:26.040Z,2.96
2022-12-09T02:52:56.214Z,2.99
2022-12-09T02:55:23.648Z,2.98
2022-12-09T02:57:56.946Z,2.94
2022-12-09T03:00:27.908Z,2.92
2022-12-09T03:02:59.708Z,2.91
2022-12-09T03:05:34.197Z,2.92
2022-12-09T03:08:10.600Z,2.88
2022-12-09T03:10:44.116Z,2.92
2022-12-09T03:13:22.716Z,2.96
2022-12-09T03:15:57.765Z,2.91
2022-12-09T03:18:29.236Z,2.90
2022-12-09T03:20:56.737Z,2.87
2022-12-09T03:23:27.770Z,2.93
2022-12-09T03:25:56.200Z,2.91
2022-12-09T03:28:30.705Z,2.94
2022-12-09T03:31:02.334Z,2.90
2022-12-09T03:33:32.398Z,2.96
2022-12-09T03:36:04.093Z,2.96
2022-12-09T03:38:36.779Z,2.99
2022-12-09T03:41:14.146Z,2.98
2022-12-09T03:43:48.179Z,2.95
2022-12-09T03:46:15.403Z,2.92
2022-12-09T03:48:42.798Z,2.89
2022-12-09T03:51:17.676Z,2.92
2022-12-09T03:53:49.216Z,2.92
2022-12-09T03:56:27.380Z,2.90
2022-12-09T03:58:57.839Z,2.92
2022-12-09T04:01:31.208Z,2.90
2022-12-09T04:03:58.710Z,2.89
2022-12-09T04:06:26.590Z,2.93
2022-12-09T04:09:01.929Z,2.91
2022-12-09T04:11:29.650Z,2.88
2022-12-09T04:13:59.675Z,2.86
2022-12-09T04:16:29.450Z,2.87
2022-12-09T04:18:56.949Z,2.84
2022-12-09T04:21:24.023Z,2.80
2022-12-09T04:23:51.579Z,2.82
2022-12-09T04:26:21.915Z,2.86
2022-12-09T04:28:50.622Z,2.85
2022-12-09T04:31:19.037Z,2.83
2022-12-09T04:33:47.923Z,2.83
2022-12-09T04:36:18.027Z,2.85
2022-12-09T04:38:46.585Z,2.87
2022-12-09T04:41:16.446Z,2.84
2022-12-09T04:43:44.096Z,2.88
2022-12-09T04:46:14.411Z,2.93
2022-12-09T04:48:41.949Z,2.91
2022-12-09T04:51:11.191Z,2.90
2022-12-09T04:53:40.077Z,2.89
2022-12-09T04:56:21.593Z,2.88
2022-12-09T04:58:50.747Z,2.84
2022-12-09T05:01:29.846Z,2.89
2022-12-09T05:03:59.369Z,2.90
2022-12-09T05:06:27.537Z,2.88
2022-12-09T05:08:55.824Z,2.89
2022-12-09T05:11:24.447Z,2.88
2022-12-09T05:13:53.953Z,2.87
2022-12-09T05:16:21.563Z,2.85
2022-12-09T05:18:50.004Z,2.83
2022-12-09T05:21:20.230Z,2.81
2022-12-09T05:23:49.075Z,2.79
2022-12-09T05:26:20.846Z,2.78
2022-12-09T05:28:49.501Z,2.80
2022-12-09T05:31:19.950Z,2.77
2022-12-09T05:33:48.757Z,2.80
2022-12-09T05:36:19.069Z,2.79
2022-12-09T05:38:48.425Z,2.78
2022-12-09T05:41:16.569Z,2.77
2022-12-09T05:43:44.669Z,2.79
2022-12-09T05:46:13.968Z,2.76
2022-12-09T05:48:41.671Z,2.77
2022-12-09T05:51:14.782Z,2.73
2022-12-09T05:53:42.753Z,2.71
2022-12-09T05:56:10.049Z,2.73
2022-12-09T05:58:37.553Z,2.70
2022-12-09T06:01:07.277Z,2.76
2022-12-09T06:03:36.546Z,2.74
2022-12-09T06:06:12.596Z,2.75
2022-12-09T06:08:41.332Z,2.70
2022-12-09T06:11:17.318Z,2.71
2022-12-09T06:13:46.515Z,2.72
2022-12-09T06:16:14.711Z,2.70
2022-12-09T06:18:42.671Z,2.65
2022-12-09T06:21:12.746Z,2.63
2022-12-09T06:23:41.435Z,2.68
2022-12-09T06:26:17.144Z,2.68
2022-12-09T06:28:45.091Z,2.68
2022-12-09T06:31:13.051Z,2.67
2022-12-09T06:33:58.584Z,2.69
2022-12-09T06:36:29.033Z,2.68
2022-12-09T06:39:00.406Z,2.72
2022-12-09T06:41:32.855Z,2.68
2022-12-09T06:44:02.803Z,2.69
2022-12-09T06:46:32.151Z,2.72
2022-12-09T06:48:59.587Z,2.76
2022-12-09T06:51:26.892Z,2.73
2022-12-09T06:53:55.180Z,2.74
2022-12-09T06:56:23.198Z,2.68
2022-12-09T06:58:51.292Z,2.71
2022-12-09T07:01:21.265Z,2.71
2022-12-09T07:03:52.327Z,2.65
2022-12-09T07:06:26.845Z,2.66
2022-12-09T07:08:59.970Z,2.66
2022-12-09T07:11:28.249Z,2.66
2022-12-09T07:13:56.209Z,2.66
2022-12-09T07:16:23.880Z,2.68
2022-12-09T07:18:51.932Z,2.65
2022-12-09T07:21:21.505Z,2.66
2022-12-09T07:23:49.191Z,2.69
2022-12-09T07:26:17.668Z,2.65
2022-12-09T07:28:47.427Z,2.67
2022-12-09T07:31:34.562Z,2.70
2022-12-09T07:34:03.218Z,2.71
2022-12-09T07:36:33.022Z,2.77
2022-12-09T07:39:07.095Z,2.76
2022-12-09T07:41:34.535Z,2.73
2022-12-09T07:44:02.059Z,2.74
2022-12-09T07:46:29.704Z,2.70
2022-12-09T07:48:58.591Z,2.70
2022-12-09T07:51:26.852Z,2.76
2022-12-09T07:53:54.867Z,2.79
2022-12-09T07:56:23.216Z,2.77
2022-12-09T07:58:54.095Z,2.83
2022-12-09T08:01:26.777Z,2.87
2022-12-09T08:03:55.724Z,2.82
2022-12-09T08:06:27.722Z,2.82
2022-12-09T08:09:01.002Z,2.89
2022-12-09T08:11:30.994Z,2.97
2022-12-09T08:14:04.459Z,2.98
2022-12-09T08:16:36.647Z,2.98
2022-12-09T08:19:04.484Z,3.01
2022-12-09T08:21:33.560Z,3.01
2022-12-09T08:24:07.737Z,3.05
2022-12-09T08:26:37.496Z,3.07
2022-12-09T08:29:11.100Z,3.11
2022-12-09T08:31:42.295Z,3.13
2022-12-09T08:34:14.409Z,3.18
2022-12-09T08:36:42.488Z,3.18
2022-12-09T08:39:11.669Z,3.24
2022-12-09T08:41:40.232Z,3.16
2022-12-09T08:44:10.351Z,3.25
2022-12-09T08:46:40.223Z,3.29
2022-12-09T08:49:08.676Z,3.28
2022-12-09T08:51:37.456Z,3.29
2022-12-09T08:54:07.761Z,3.34
2022-12-09T08:56:35.399Z,3.36
2022-12-09T08:59:04.017Z,3.33
2022-12-09T09:01:34.895Z,3.36
2022-12-09T09:04:09.333Z,3.41
2022-12-09T09:06:38.508Z,3.43
2022-12-09T09:09:07.985Z,3.53
2022-12-09T09:11:36.443Z,3.57
2022-12-09T09:14:05.825Z,3.57
2022-12-09T09:16:35.499Z,3.52
2022-12-09T09:19:06.091Z,3.52
2022-12-09T09:21:34.919Z,3.49
2022-12-09T09:24:03.264Z,3.43
2022-12-09T09:26:30.446Z,3.45
2022-12-09T09:28:58.618Z,3.41
2022-12-09T09:31:28.389Z,3.45
2022-12-09T09:33:56.051Z,3.46
2022-12-09T09:36:25.134Z,3.52
2022-12-09T09:38:55.093Z,3.57
2022-12-09T09:41:38.597Z,3.59
2022-12-09T09:44:21.858Z,3.61
2022-12-09T09:46:51.568Z,3.62
2022-12-09T09:49:54.576Z,3.66
2022-12-09T09:52:24.674Z,3.66
2022-12-09T09:54:53.319Z,3.75
2022-12-09T09:57:36.745Z,3.75
2022-12-09T10:00:11.387Z,3.78
2022-12-09T10:02:58.214Z,3.84
2022-12-09T10:05:31.693Z,3.85
2022-12-09T10:08:24.053Z,3.91
2022-12-09T10:11:09.135Z,3.93
2022-12-09T10:14:22.155Z,3.94
2022-12-09T10:16:57.822Z,3.96
2022-12-09T10:19:33.702Z,3.97
2022-12-09T10:22:12.795Z,3.97
2022-12-09T10:25:08.170Z,4.02
2022-12-09T10:27:49.253Z,4.05
2022-12-09T10:30:19.102Z,4.05
2022-12-09T10:32:47.609Z,4.06
2022-12-09T10:35:17.693Z,4.09
2022-12-09T10:37:46.072Z,4.10
2022-12-09T10:40:20.297Z,4.11
2022-12-09T10:43:06.449Z,4.10
2022-12-09T10:46:07.857Z,4.13
2022-12-09T10:48:33.367Z,4.14
2022-12-09T10:51:06.110Z,4.22
2022-12-09T10:53:36.027Z,4.20
2022-12-09T10:56:04.225Z,4.28
2022-12-09T10:58:32.597Z,4.35
2022-12-09T11:01:08.732Z,4.33
2022-12-09T11:03:53.623Z,4.38
2022-12-09T11:06:31.367Z,4.46
2022-12-09T11:09:03.243Z,4.51
2022-12-09T11:11:45.716Z,4.62
2022-12-09T11:14:23.220Z,4.64
2022-12-09T11:16:57.267Z,4.66
2022-12-09T11:19:39.057Z,4.66
2022-12-09T11:22:39.635Z,4.71
2022-12-09T11:25:14.029Z,4.73
2022-12-09T11:27:50.259Z,4.71
2022-12-09T11:30:23.713Z,4.80
2022-12-09T11:32:56.683Z,4.80
2022-12-09T11:35:32.255Z,4.82
2022-12-09T11:38:04.886Z,4.87
2022-12-09T11:40:32.751Z,4.88
2022-12-09T11:42:59.910Z,4.92
2022-12-09T11:45:37.000Z,4.99
2022-12-09T11:48:33.960Z,5.01
2022-12-09T11:51:02.487Z,5.03
2022-12-09T11:53:31.985Z,5.10
2022-12-09T11:56:17.782Z,5.16
2022-12-09T11:58:55.916Z,5.24
2022-12-09T12:02:01.602Z,5.21
2022-12-09T12:04:39.251Z,5.26
2022-12-09T12:07:57.866Z,5.29
2022-12-09T12:10:34.431Z,5.24
2022-12-09T12:13:20.597Z,5.21
2022-12-09T12:16:08.833Z,5.24
2022-12-09T12:18:56.280Z,5.25
2022-12-09T12:21:36.209Z,5.19
2022-12-09T12:24:28.577Z,5.20
2022-12-09T12:27:19.518Z,5.21
2022-12-09T12:30:02.183Z,5.11
2022-12-09T12:32:29.235Z,5.10
2022-12-09T12:35:02.905Z,5.08
2022-12-09T12:38:14.687Z,4.98
2022-12-09T12:40:57.214Z,4.95
2022-12-09T12:43:49.297Z,4.92
2022-12-09T12:46:27.542Z,4.90
2022-12-09T12:49:24.547Z,4.90
2022-12-09T12:55:48.032Z,4.77
2022-12-09T12:58:30.954Z,4.75
2022-12-09T13:01:04.343Z,4.70
2022-12-09T13:03:40.980Z,4.69
2022-12-09T13:06:13.763Z,4.66
2022-12-09T13:08:48.815Z,4.66
2022-12-09T13:11:27.005Z,4.69
2022-12-09T13:13:59.177Z,4.64
2022-12-09T13:16:34.559Z,4.60
2022-12-09T13:19:11.860Z,4.62
2022-12-09T13:21:39.505Z,4.54
2022-12-09T13:24:37.855Z,4.50
2022-12-09T13:27:25.878Z,4.51
2022-12-09T13:30:01.440Z,4.50
2022-12-09T13:33:06.958Z,4.48
2022-12-09T13:35:43.751Z,4.50
2022-12-09T13:38:26.174Z,4.49
2022-12-09T13:40:53.609Z,4.47
2022-12-09T13:43:28.561Z,4.48
2022-12-09T13:46:01.565Z,4.49
2022-12-09T13:48:44.731Z,4.52
2022-12-09T13:51:13.545Z,4.49
2022-12-09T13:53:49.496Z,4.51
2022-12-09T13:56:16.956Z,4.52
2022-12-09T13:59:21.558Z,4.50
2022-12-09T14:02:01.531Z,4.47
2022-12-09T14:04:36.300Z,4.42
2022-12-09T14:07:42.154Z,4.43
2022-12-09T14:10:39.214Z,4.42
2022-12-09T14:13:24.319Z,4.39
2022-12-09T14:16:18.629Z,4.39
2022-12-09T14:18:46.116Z,4.40
2022-12-09T14:21:19.241Z,4.38
2022-12-09T14:24:08.408Z,4.34
2022-12-09T14:26:42.069Z,4.30
2022-12-09T14:29:10.203Z,4.26
2022-12-09T14:31:49.272Z,4.26
2022-12-09T14:34:24.446Z,4.27
2022-12-09T14:37:12.758Z,4.29
2022-12-09T14:40:07.539Z,4.25
2022-12-09T14:42:50.671Z,4.28
2022-12-09T14:45:47.189Z,4.22
2022-12-09T14:48:21.603Z,4.23
2022-12-09T14:51:06.785Z,4.20
2022-12-09T14:53:37.570Z,4.16
2022-12-09T14:56:05.827Z,4.18
2022-12-09T14:58:33.284Z,4.17
2022-12-09T15:01:06.059Z,4.17
2022-12-09T15:03:39.436Z,4.18
2022-12-09T15:06:18.061Z,4.13
2022-12-09T15:08:46.176Z,4.20
2022-12-09T15:11:35.540Z,4.17
2022-12-09T15:14:27.966Z,4.19
2022-12-09T15:16:57.132Z,4.20
2022-12-09T15:19:59.190Z,4.20
2022-12-09T15:22:24.944Z,4.19
2022-12-09T15:24:53.944Z,4.17
2022-12-09T15:27:25.176Z,4.17
2022-12-09T15:29:54.474Z,4.16
2022-12-09T15:32:29.195Z,4.17
2022-12-09T15:35:12.408Z,4.14
2022-12-09T15:37:43.888Z,4.13
2022-12-09T15:40:14.299Z,4.12
2022-12-09T15:42:46.363Z,4.15
2022-12-09T15:45:18.637Z,4.15
2022-12-09T15:47:50.051Z,4.12
2022-12-09T15:50:48.496Z,4.13
2022-12-09T15:53:25.546Z,4.12
2022-12-09T15:56:03.034Z,4.14
2022-12-09T15:58:38.595Z,4.16
2022-12-09T16:01:09.350Z,4.17
2022-12-09T16:03:38.553Z,4.17
2022-12-09T16:06:10.003Z,4.17
2022-12-09T16:08:42.085Z,4.13
2022-12-09T16:11:12.470Z,4.15
2022-12-09T16:14:07.596Z,4.12
2022-12-09T16:16:58.564Z,4.10
2022-12-09T16:19:29.102Z,4.08
2022-12-09T16:22:19.790Z,4.12
2022-12-09T16:27:47.002Z,4.08
2022-12-09T16:30:19.242Z,4.08
2022-12-09T16:32:51.704Z,4.07
2022-12-09T16:35:29.468Z,4.07
2022-12-09T16:38:12.366Z,4.03
2022-12-09T16:40:49.824Z,4.04
2022-12-09T16:43:17.632Z,3.99
2022-12-09T16:45:52.488Z,3.99
2022-12-09T16:48:22.639Z,4.06
2022-12-09T16:50:54.543Z,4.03
2022-12-09T16:53:30.964Z,4.02
2022-12-09T16:56:01.467Z,3.97
2022-12-09T16:58:31.689Z,3.96
2022-12-09T17:01:01.554Z,3.91
2022-12-09T17:03:40.767Z,3.92
2022-12-09T17:06:16.217Z,3.95
2022-12-09T17:08:47.872Z,3.91
2022-12-09T17:11:22.231Z,3.94
2022-12-09T17:13:51.806Z,3.94
2022-12-09T17:16:22.747Z,3.92
2022-12-09T17:18:51.757Z,3.87
2022-12-09T17:21:19.941Z,3.87
2022-12-09T17:23:49.250Z,3.85
2022-12-09T17:26:21.204Z,3.83
2022-12-09T17:28:51.168Z,3.85
2022-12-09T17:31:23.476Z,3.83
2022-12-09T17:33:55.864Z,3.82
2022-12-09T17:36:24.159Z,3.77
2022-12-09T17:38:52.640Z,3.81
2022-12-09T17:41:24.198Z,3.82
2022-12-09T17:43:52.062Z,3.78
2022-12-09T17:46:20.931Z,3.75
2022-12-09T17:48:48.661Z,3.78
2022-12-09T17:51:20.074Z,3.78
2022-12-09T17:53:50.601Z,3.80
2022-12-09T17:56:24.249Z,3.78
2022-12-09T17:58:59.860Z,3.79
2022-12-09T18:01:27.811Z,3.77
2022-12-09T18:04:06.193Z,3.81
2022-12-09T18:06:45.258Z,3.84
2022-12-09T18:09:16.694Z,3.82
2022-12-09T18:11:45.438Z,3.87
2022-12-09T18:14:15.854Z,3.87
2022-12-09T18:16:47.115Z,3.86
2022-12-09T18:19:16.652Z,3.88
2022-12-09T18:21:46.345Z,3.92
2022-12-09T18:24:14.214Z,3.86
2022-12-09T18:26:42.634Z,3.87
2022-12-09T18:29:11.795Z,3.82
2022-12-09T18:31:46.214Z,3.82
2022-12-09T18:34:14.393Z,3.87
2022-12-09T18:36:42.356Z,3.81
2022-12-09T18:39:10.235Z,3.78
2022-12-09T18:41:38.472Z,3.79
2022-12-09T18:44:09.475Z,3.76
2022-12-09T18:46:41.088Z,3.74
2022-12-09T18:49:16.053Z,3.77
2022-12-09T18:51:45.317Z,3.73
2022-12-09T18:54:27.886Z,3.73
2022-12-09T18:57:02.693Z,3.71
2022-12-09T18:59:31.687Z,3.70
2022-12-09T19:02:00.891Z,3.68
2022-12-09T19:04:30.594Z,3.72
2022-12-09T19:07:02.053Z,3.67
2022-12-09T19:09:34.532Z,3.70
2022-12-09T19:12:47.161Z,3.73
2022-12-09T19:14:54.267Z,3.76
2022-12-09T19:17:24.985Z,3.72
2022-12-09T19:19:56.178Z,3.75
2022-12-09T19:22:24.449Z,3.75
2022-12-09T19:24:52.681Z,3.74
2022-12-09T19:27:20.696Z,3.75
2022-12-09T19:29:49.617Z,3.76
2022-12-09T19:32:51.312Z,3.77
2022-12-09T19:35:10.873Z,3.78
2022-12-09T19:37:38.749Z,3.80
2022-12-09T19:40:07.838Z,3.85
2022-12-09T19:42:37.476Z,3.83
2022-12-09T19:45:10.572Z,3.81
2022-12-09T19:47:43.635Z,3.83
2022-12-09T19:50:11.737Z,3.81
2022-12-09T19:52:40.813Z,3.80
2022-12-09T19:55:13.953Z,3.80
2022-12-09T19:57:44.952Z,3.82
2022-12-09T20:00:14.213Z,3.85
2022-12-09T20:02:45.778Z,3.85
2022-12-09T20:05:14.753Z,3.83
2022-12-09T20:07:43.674Z,3.88
2022-12-09T20:10:13.802Z,3.88
2022-12-09T20:12:41.700Z,3.84
2022-12-09T20:15:12.669Z,3.85
2022-12-09T20:17:41.638Z,3.84
2022-12-09T20:20:10.829Z,3.84
2022-12-09T20:22:39.806Z,3.83
2022-12-09T20:25:11.214Z,3.80
2022-12-09T20:27:39.815Z,3.82
2022-12-09T20:30:08.552Z,3.77
2022-12-09T20:32:37.163Z,3.74
2022-12-09T20:35:09.649Z,3.71
2022-12-09T20:37:38.539Z,3.69
2022-12-09T20:40:10.558Z,3.67
2022-12-09T20:42:38.981Z,3.66
2022-12-09T20:45:09.321Z,3.66
2022-12-09T20:47:38.115Z,3.66
2022-12-09T20:50:07.087Z,3.61
2022-12-09T20:52:35.685Z,3.63
2022-12-09T20:55:03.607Z,3.61
2022-12-09T20:57:32.681Z,3.61
2022-12-09T21:00:00.724Z,3.56
2022-12-09T21:02:30.056Z,3.53
2022-12-09T21:05:01.540Z,3.55
2022-12-09T21:07:30.175Z,3.55
2022-12-09T21:10:01.020Z,3.54
2022-12-09T21:12:29.804Z,3.44
2022-12-09T21:14:58.119Z,3.47
2022-12-09T21:17:26.485Z,3.47
2022-12-09T21:19:56.713Z,3.45
2022-12-09T21:22:27.137Z,3.42
2022-12-09T21:24:55.423Z,3.41
2022-12-09T21:27:26.735Z,3.37
2022-12-09T21:29:58.182Z,3.32
2022-12-09T21:32:26.804Z,3.28
2022-12-09T21:34:58.225Z,3.27
2022-12-09T21:37:26.013Z,3.21
2022-12-09T21:39:53.738Z,3.20
2022-12-09T21:42:21.887Z,3.14
2022-12-09T21:44:50.212Z,3.05
2022-12-09T21:47:22.636Z,3.06
2022-12-09T21:49:50.200Z,3.05
2022-12-09T21:52:17.664Z,3.00
2022-12-09T21:54:45.026Z,2.99
2022-12-09T21:57:12.603Z,2.94
2022-12-09T21:59:39.846Z,2.90
2022-12-09T22:02:07.818Z,2.85
2022-12-09T22:04:35.189Z,2.83
2022-12-09T22:07:02.929Z,2.80
2022-12-09T22:09:30.014Z,2.76
2022-12-09T22:11:57.519Z,2.76
2022-12-09T22:14:24.663Z,2.70
2022-12-09T22:16:52.248Z,2.73
2022-12-09T22:19:22.536Z,2.73
2022-12-09T22:21:50.505Z,2.74
2022-12-09T22:24:18.463Z,2.73
2022-12-09T22:26:46.349Z,2.68
2022-12-09T22:29:15.581Z,2.66
2022-12-09T22:31:44.539Z,2.67
2022-12-09T22:34:14.616Z,2.66
2022-12-09T22:36:42.172Z,2.66
2022-12-09T22:39:14.049Z,2.60
2022-12-09T22:41:43.772Z,2.56
2022-12-09T22:44:13.560Z,2.50
2022-12-09T22:46:42.317Z,2.51
2022-12-09T22:49:14.220Z,2.46
2022-12-09T22:51:42.670Z,2.45
2022-12-09T22:54:10.339Z,2.38
2022-12-09T22:56:39.835Z,2.34
2022-12-09T22:59:07.303Z,2.33
2022-12-09T23:01:38.967Z,2.30
2022-12-09T23:04:08.405Z,2.28
2022-12-09T23:06:37.726Z,2.25
2022-12-09T23:09:07.288Z,2.24
2022-12-09T23:11:35.200Z,2.19
2022-12-09T23:14:02.654Z,2.20
2022-12-09T23:16:30.552Z,2.16
2022-12-09T23:18:59.095Z,2.16
2022-12-09T23:21:37.696Z,2.16
2022-12-09T23:24:10.204Z,2.17
2022-12-09T23:26:42.369Z,2.16
2022-12-09T23:29:14.358Z,2.14
2022-12-09T23:31:42.692Z,2.13
2022-12-09T23:34:15.179Z,2.12
2022-12-09T23:36:43.971Z,2.17
2022-12-09T23:39:14.435Z,2.10
2022-12-09T23:41:43.741Z,2.15
2022-12-09T23:44:19.151Z,2.15
2022-12-09T23:46:47.084Z,2.14
2022-12-09T23:49:14.919Z,2.14
2022-12-09T23:51:44.123Z,2.14
2022-12-09T23:54:15.852Z,2.17
2022-12-09T23:56:48.093Z,2.15
2022-12-09T23:59:22.760Z,2.17
